createdAt,value
2022-08-05T00:01:48.413Z,98359.70
2022-08-05T00:04:18.429Z,98358.20
2022-08-05T00:06:47.226Z,98360.66
2022-08-05T00:09:19.823Z,98358.36
2022-08-05T00:11:55.706Z,98359.27
2022-08-05T00:14:26.494Z,98358.13
2022-08-05T00:16:57.862Z,98356.96
2022-08-05T00:19:33.551Z,98351.48
2022-08-05T00:22:02.706Z,98347.45
2022-08-05T00:24:32.440Z,98347.48
2022-08-05T00:27:04.488Z,98346.67
2022-08-05T00:29:38.494Z,98346.46
2022-08-05T00:32:12.278Z,98342.50
2022-08-05T00:35:03.400Z,98345.45
2022-08-05T00:37:53.134Z,98346.14
2022-08-05T00:40:27.526Z,98339.66
2022-08-05T00:43:00.192Z,98339.66
2022-08-05T00:45:42.884Z,98344.54
2022-08-05T00:48:14.040Z,98339.98
2022-08-05T00:50:46.513Z,98339.73
2022-08-05T00:53:45.364Z,98339.20
2022-08-05T00:56:07.806Z,98337.63
2022-08-05T00:58:38.110Z,98333.74
2022-08-05T01:01:08.966Z,98330.92
2022-08-05T01:03:39.611Z,98329.34
2022-08-05T01:06:13.977Z,98330.16
2022-08-05T01:08:44.313Z,98328.67
2022-08-05T01:11:22.258Z,98328.31
2022-08-05T01:14:09.024Z,98323.52
2022-08-05T01:16:54.486Z,98321.23
2022-08-05T01:19:36.639Z,98317.02
2022-08-05T01:22:41.978Z,98315.42
2022-08-05T01:25:40.765Z,98313.05
2022-08-05T01:28:24.875Z,98308.86
2022-08-05T01:30:56.727Z,98311.65
2022-08-05T01:33:35.649Z,98310.41
2022-08-05T01:36:12.802Z,98304.05
2022-08-05T01:38:49.798Z,98306.42
2022-08-05T01:41:25.674Z,98303.35
2022-08-05T01:43:55.375Z,98300.98
2022-08-05T01:46:42.395Z,98298.17
2022-08-05T01:49:24.253Z,98298.31
2022-08-05T01:51:58.462Z,98295.40
2022-08-05T01:54:45.733Z,98301.08
2022-08-05T01:58:12.156Z,98294.30
2022-08-05T02:00:13.031Z,98296.48
2022-08-05T02:03:24.460Z,98297.84
2022-08-05T02:06:00.850Z,98295.32
2022-08-05T02:08:33.447Z,98292.34
2022-08-05T02:11:16.895Z,98291.90
2022-08-05T02:14:12.520Z,98292.10
2022-08-05T02:16:52.927Z,98292.88
2022-08-05T02:19:34.981Z,98289.50
2022-08-05T02:22:27.525Z,98287.89
2022-08-05T02:25:04.919Z,98288.77
2022-08-05T02:27:59.065Z,98281.31
2022-08-05T02:30:28.081Z,98283.95
2022-08-05T02:33:00.243Z,98282.77
2022-08-05T02:35:33.372Z,98281.08
2022-08-05T02:38:09.251Z,98280.79
2022-08-05T02:40:42.167Z,98280.89
2022-08-05T02:43:14.093Z,98276.94
2022-08-05T02:45:52.555Z,98275.56
2022-08-05T02:48:29.549Z,98276.30
2022-08-05T02:51:00.852Z,98271.98
2022-08-05T02:53:39.148Z,98273.61
2022-08-05T02:56:16.080Z,98270.70
2022-08-05T02:58:51.256Z,98274.27
2022-08-05T03:01:25.352Z,98275.08
2022-08-05T03:04:02.633Z,98273.63
2022-08-05T03:06:53.762Z,98275.06
2022-08-05T03:09:36.332Z,98269.41
2022-08-05T03:12:07.876Z,98275.19
2022-08-05T03:14:40.918Z,98269.82
2022-08-05T03:17:14.110Z,98264.73
2022-08-05T03:19:42.347Z,98262.84
2022-08-05T03:22:16.812Z,98265.87
2022-08-05T03:24:50.824Z,98265.74
2022-08-05T03:27:20.905Z,98267.30
2022-08-05T03:30:07.447Z,98266.58
2022-08-05T03:32:38.150Z,98265.96
2022-08-05T03:35:08.905Z,98263.48
2022-08-05T03:37:40.994Z,98264.32
2022-08-05T03:40:15.536Z,98268.47
2022-08-05T03:42:56.658Z,98272.19
2022-08-05T03:45:25.958Z,98271.14
2022-08-05T03:47:57.217Z,98267.63
2022-08-05T03:50:42.892Z,98265.54
2022-08-05T03:54:59.203Z,98264.38
2022-08-05T03:56:26.852Z,98268.23
2022-08-05T03:59:02.335Z,98266.23
2022-08-05T04:01:33.103Z,98266.73
2022-08-05T04:04:09.322Z,98268.60
2022-08-05T04:06:47.413Z,98270.44
2022-08-05T04:09:20.274Z,98268.88
2022-08-05T04:11:56.863Z,98266.86
2022-08-05T04:14:30.392Z,98271.69
2022-08-05T04:17:00.511Z,98271.81
2022-08-05T04:19:29.784Z,98271.33
2022-08-05T04:22:08.092Z,98269.15
2022-08-05T04:24:52.995Z,98272.82
2022-08-05T04:27:33.099Z,98264.90
2022-08-05T04:30:10.299Z,98266.34
2022-08-05T04:32:39.062Z,98267.23
2022-08-05T04:35:17.590Z,98267.92
2022-08-05T04:38:02.696Z,98268.46
2022-08-05T04:40:36.289Z,98272.06
2022-08-05T04:43:05.059Z,98267.73
2022-08-05T04:45:48.973Z,98269.58
2022-08-05T04:48:27.842Z,98266.39
2022-08-05T04:51:03.751Z,98264.91
2022-08-05T04:53:41.557Z,98260.89
2022-08-05T04:56:32.427Z,98262.23
2022-08-05T04:58:58.791Z,98266.73
2022-08-05T05:02:05.491Z,98258.61
2022-08-05T05:04:14.530Z,98266.91
2022-08-05T05:06:49.122Z,98263.95
2022-08-05T05:09:18.358Z,98255.17
2022-08-05T05:11:54.524Z,98271.63
2022-08-05T05:14:27.762Z,98276.61
2022-08-05T05:17:00.849Z,98274.75
2022-08-05T05:19:36.496Z,98275.05
2022-08-05T05:22:23.613Z,98266.47
2022-08-05T05:24:58.693Z,98264.63
2022-08-05T05:27:44.968Z,98264.66
2022-08-05T05:30:29.263Z,98267.22
2022-08-05T05:33:03.786Z,98269.02
2022-08-05T05:35:48.279Z,98277.73
2022-08-05T05:38:22.862Z,98278.73
2022-08-05T05:40:56.515Z,98278.95
2022-08-05T05:43:57.597Z,98283.29
2022-08-05T05:46:17.406Z,98290.41
2022-08-05T05:48:47.809Z,98291.78
2022-08-05T05:51:21.939Z,98292.91
2022-08-05T05:53:57.173Z,98293.40
2022-08-05T05:56:34.482Z,98296.89
2022-08-05T05:59:07.811Z,98298.92
2022-08-05T06:01:39.557Z,98294.52
2022-08-05T06:04:12.223Z,98300.09
2022-08-05T06:06:46.418Z,98293.87
2022-08-05T06:09:24.784Z,98294.59
2022-08-05T06:11:59.161Z,98290.41
2022-08-05T06:14:33.412Z,98294.10
2022-08-05T06:17:22.271Z,98289.58
2022-08-05T06:19:57.162Z,98290.96
2022-08-05T06:22:33.471Z,98292.23
2022-08-05T06:25:59.252Z,98292.14
2022-08-05T06:28:12.676Z,98293.30
2022-08-05T06:30:39.411Z,98296.05
2022-08-05T06:33:09.856Z,98297.90
2022-08-05T06:36:08.187Z,98300.46
2022-08-05T06:38:36.529Z,98303.55
2022-08-05T06:41:07.970Z,98303.13
2022-08-05T06:43:59.013Z,98301.55
2022-08-05T06:46:29.715Z,98302.69
2022-08-05T06:49:01.170Z,98302.46
2022-08-05T06:51:30.975Z,98300.55
2022-08-05T06:54:00.430Z,98307.77
2022-08-05T06:56:33.374Z,98305.15
2022-08-05T06:59:08.317Z,98305.55
2022-08-05T07:01:41.498Z,98300.23
2022-08-05T07:04:10.394Z,98299.02
2022-08-05T07:06:38.475Z,98299.33
2022-08-05T07:09:06.359Z,98303.32
2022-08-05T07:11:36.919Z,98299.71
2022-08-05T07:14:28.993Z,98298.50
2022-08-05T07:18:01.239Z,98296.31
2022-08-05T07:22:42.058Z,98300.62
2022-08-05T07:25:55.316Z,98300.98
2022-08-05T07:28:04.213Z,98304.77
2022-08-05T07:30:38.416Z,98308.20
2022-08-05T07:33:16.225Z,98309.52
2022-08-05T07:36:05.057Z,98309.29
2022-08-05T07:38:43.684Z,98301.59
2022-08-05T07:42:13.174Z,98303.02
2022-08-05T07:44:18.512Z,98305.71
2022-08-05T07:46:50.168Z,98308.95
2022-08-05T07:49:19.677Z,98305.06
2022-08-05T07:51:52.934Z,98305.91
2022-08-05T07:54:31.391Z,98301.72
2022-08-05T07:57:17.860Z,98297.98
2022-08-05T07:59:52.176Z,98295.43
2022-08-05T08:02:31.454Z,98299.72
2022-08-05T08:05:17.449Z,98299.04
2022-08-05T08:07:59.110Z,98296.20
2022-08-05T08:10:29.223Z,98301.80
2022-08-05T08:12:58.537Z,98300.81
2022-08-05T08:16:33.404Z,98304.90
2022-08-05T08:18:14.757Z,98306.02
2022-08-05T08:21:02.897Z,98304.81
2022-08-05T08:24:02.356Z,98303.66
2022-08-05T08:26:29.829Z,98301.98
2022-08-05T08:29:21.756Z,98299.88
2022-08-05T08:31:49.909Z,98306.77
2022-08-05T08:34:30.333Z,98306.02
2022-08-05T08:37:05.022Z,98303.92
2022-08-05T08:39:37.858Z,98303.20
2022-08-05T08:42:15.173Z,98306.06
2022-08-05T08:45:19.144Z,98305.09
2022-08-05T08:48:12.513Z,98308.99
2022-08-05T08:51:03.847Z,98305.45
2022-08-05T08:53:35.874Z,98308.27
2022-08-05T08:56:06.155Z,98308.33
2022-08-05T08:58:43.253Z,98297.77
2022-08-05T09:01:15.732Z,98305.56
2022-08-05T09:03:54.283Z,98299.33
2022-08-05T09:06:28.055Z,98294.27
2022-08-05T09:09:01.135Z,98298.27
2022-08-05T09:11:52.686Z,98291.96
2022-08-05T09:14:56.384Z,98289.36
2022-08-05T09:17:40.106Z,98290.91
2022-08-05T09:20:04.787Z,98284.34
2022-08-05T09:23:05.219Z,98280.71
2022-08-05T09:26:01.420Z,98270.13
2022-08-05T09:28:32.282Z,98264.35
2022-08-05T09:31:44.124Z,98259.61
2022-08-05T09:34:07.372Z,98249.33
2022-08-05T09:36:54.382Z,98247.48
2022-08-05T09:39:27.848Z,98244.78
2022-08-05T09:42:11.365Z,98239.01
2022-08-05T09:44:50.438Z,98233.44
2022-08-05T09:47:24.548Z,98231.77
2022-08-05T09:50:01.003Z,98230.91
2022-08-05T09:52:35.567Z,98224.98
2022-08-05T09:55:55.257Z,98230.08
2022-08-05T09:57:54.805Z,98226.42
2022-08-05T10:00:27.782Z,98225.45
2022-08-05T10:02:59.135Z,98224.23
2022-08-05T10:05:29.382Z,98225.13
2022-08-05T10:08:34.793Z,98222.60
2022-08-05T10:10:54.108Z,98221.16
2022-08-05T10:13:47.144Z,98217.92
2022-08-05T10:16:41.893Z,98217.39
2022-08-05T10:19:23.535Z,98215.82
2022-08-05T10:22:08.988Z,98213.64
2022-08-05T10:24:43.824Z,98211.86
2022-08-05T10:27:16.717Z,98214.00
2022-08-05T10:30:41.191Z,98209.80
2022-08-05T10:32:55.810Z,98204.95
2022-08-05T10:35:20.714Z,98204.31
2022-08-05T10:38:02.768Z,98200.93
2022-08-05T10:40:49.352Z,98200.65
2022-08-05T10:43:35.934Z,98197.63
2022-08-05T10:46:07.202Z,98196.04
2022-08-05T10:48:57.303Z,98202.69
2022-08-05T10:51:53.067Z,98195.51
2022-08-05T10:54:56.520Z,98187.31
2022-08-05T10:57:32.085Z,98198.17
2022-08-05T11:00:20.503Z,98198.60
2022-08-05T11:03:24.258Z,98198.46
2022-08-05T11:06:08.445Z,98189.27
2022-08-05T11:09:32.298Z,98190.41
2022-08-05T11:12:50.728Z,98188.67
2022-08-05T11:16:00.346Z,98181.41
2022-08-05T11:18:34.080Z,98186.89
2022-08-05T11:21:06.302Z,98176.15
2022-08-05T11:24:04.750Z,98177.80
2022-08-05T11:26:43.432Z,98179.70
2022-08-05T11:29:35.854Z,98179.21
2022-08-05T11:32:26.426Z,98182.09
2022-08-05T11:34:55.728Z,98172.73
2022-08-05T11:38:28.778Z,98175.73
2022-08-05T11:41:35.310Z,98176.17
2022-08-05T11:44:05.696Z,98178.78
2022-08-05T11:46:36.849Z,98180.75
2022-08-05T11:49:07.933Z,98181.49
2022-08-05T11:51:44.235Z,98179.91
2022-08-05T11:54:33.525Z,98179.84
2022-08-05T11:57:08.028Z,98183.64
2022-08-05T11:59:49.726Z,98181.78
2022-08-05T12:02:30.740Z,98177.55
2022-08-05T12:05:08.018Z,98180.30
2022-08-05T12:08:08.180Z,98177.15
2022-08-05T12:10:42.970Z,98170.45
2022-08-05T12:13:18.819Z,98168.84
2022-08-05T12:16:15.443Z,98167.84
2022-08-05T12:18:49.113Z,98164.77
2022-08-05T12:21:31.851Z,98165.37
2022-08-05T12:24:10.797Z,98161.52
2022-08-05T12:26:46.486Z,98164.98
2022-08-05T12:29:26.787Z,98163.05
2022-08-05T12:32:02.167Z,98160.65
2022-08-05T12:34:36.980Z,98158.71
2022-08-05T12:37:17.343Z,98156.79
2022-08-05T12:40:03.192Z,98151.88
2022-08-05T12:42:32.029Z,98150.56
2022-08-05T12:45:08.877Z,98153.20
2022-08-05T12:47:43.552Z,98150.13
2022-08-05T12:50:26.520Z,98143.33
2022-08-05T12:53:00.064Z,98140.96
2022-08-05T12:55:32.484Z,98140.48
2022-08-05T12:58:38.872Z,98138.98
2022-08-05T13:02:01.733Z,98140.09
2022-08-05T13:03:43.021Z,98143.03
2022-08-05T13:06:16.623Z,98140.34
2022-08-05T13:08:50.810Z,98141.05
2022-08-05T13:11:47.030Z,98132.33
2022-08-05T13:14:24.996Z,98130.92
2022-08-05T13:17:31.639Z,98127.59
2022-08-05T13:20:03.393Z,98124.44
2022-08-05T13:22:32.471Z,98120.39
2022-08-05T13:25:05.845Z,98115.83
2022-08-05T13:27:41.945Z,98114.34
2022-08-05T13:30:32.772Z,98113.58
2022-08-05T13:33:02.166Z,98116.63
2022-08-05T13:35:42.704Z,98118.48
2022-08-05T13:38:28.363Z,98119.48
2022-08-05T13:41:00.288Z,98116.98
2022-08-05T13:43:43.295Z,98111.83
2022-08-05T13:46:14.745Z,98107.83
2022-08-05T13:48:57.601Z,98107.17
2022-08-05T13:51:40.102Z,98110.43
2022-08-05T13:54:12.594Z,98114.87
2022-08-05T13:56:45.173Z,98109.68
2022-08-05T13:59:24.626Z,98108.90
2022-08-05T14:01:58.242Z,98108.90
2022-08-05T14:04:50.187Z,98106.89
2022-08-05T14:07:59.658Z,98106.40
2022-08-05T14:10:27.904Z,98103.62
2022-08-05T14:12:57.544Z,98102.59
2022-08-05T14:16:07.848Z,98095.34
2022-08-05T14:18:14.733Z,98101.34
2022-08-05T14:20:47.963Z,98096.83
2022-08-05T14:23:24.751Z,98097.01
2022-08-05T14:25:58.024Z,98093.66
2022-08-05T14:28:29.691Z,98089.22
2022-08-05T14:30:59.033Z,98087.72
2022-08-05T14:33:26.822Z,98089.25
2022-08-05T14:35:54.964Z,98082.61
2022-08-05T14:38:31.639Z,98086.44
2022-08-05T14:41:06.256Z,98085.02
2022-08-05T14:43:59.084Z,98086.71
2022-08-05T14:46:28.538Z,98082.59
2022-08-05T14:49:03.462Z,98080.11
2022-08-05T14:51:42.547Z,98079.12
2022-08-05T14:54:28.386Z,98077.17
2022-08-05T14:56:58.766Z,98071.98
2022-08-05T14:59:29.470Z,98072.26
2022-08-05T15:02:14.855Z,98074.70
2022-08-05T15:04:44.978Z,98077.39
2022-08-05T15:08:08.711Z,98076.31
2022-08-05T15:10:04.155Z,98076.56
2022-08-05T15:12:59.416Z,98077.67
2022-08-05T15:15:54.430Z,98070.80
2022-08-05T15:18:15.240Z,98071.42
2022-08-05T15:20:46.035Z,98065.22
2022-08-05T15:23:14.378Z,98071.29
2022-08-05T15:25:53.812Z,98063.63
2022-08-05T15:28:27.661Z,98068.48
2022-08-05T15:30:56.751Z,98064.39
2022-08-05T15:34:05.910Z,98056.55
2022-08-05T15:36:17.505Z,98053.20
2022-08-05T15:41:00.569Z,98055.67
2022-08-05T15:41:56.387Z,98049.48
2022-08-05T15:44:30.820Z,98050.71
2022-08-05T15:47:01.792Z,98048.59
2022-08-05T15:49:40.021Z,98048.04
2022-08-05T15:52:52.292Z,98048.52
2022-08-05T15:55:15.602Z,98047.48
2022-08-05T15:57:45.213Z,98048.13
2022-08-05T16:00:16.839Z,98050.11
2022-08-05T16:02:53.891Z,98046.52
2022-08-05T16:05:23.006Z,98050.64
2022-08-05T16:07:57.154Z,98044.30
2022-08-05T16:10:26.786Z,98048.05
2022-08-05T16:12:55.890Z,98044.58
2022-08-05T16:15:24.437Z,98043.92
2022-08-05T16:18:00.557Z,98041.94
2022-08-05T16:20:32.429Z,98045.65
2022-08-05T16:23:00.955Z,98044.48
2022-08-05T16:25:33.952Z,98045.55
2022-08-05T16:28:09.463Z,98044.33
2022-08-05T16:30:38.361Z,98045.21
2022-08-05T16:33:06.610Z,98044.92
2022-08-05T16:35:42.517Z,98043.95
2022-08-05T16:38:24.752Z,98047.30
2022-08-05T16:41:01.392Z,98049.11
2022-08-05T16:43:33.578Z,98046.14
2022-08-05T16:46:23.826Z,98033.59
2022-08-05T16:48:51.867Z,98040.80
2022-08-05T16:51:20.739Z,98040.80
2022-08-05T16:54:05.650Z,98036.95
2022-08-05T16:56:41.390Z,98033.98
2022-08-05T16:59:10.496Z,98033.78
2022-08-05T17:01:54.204Z,98033.70
2022-08-05T17:04:26.320Z,98021.02
2022-08-05T17:07:00.229Z,98031.63
2022-08-05T17:09:30.176Z,98034.25
2022-08-05T17:11:59.860Z,98030.60
2022-08-05T17:14:36.707Z,98031.55
2022-08-05T17:17:09.285Z,98031.04
2022-08-05T17:19:45.717Z,98029.06
2022-08-05T17:22:24.806Z,98028.69
2022-08-05T17:24:58.175Z,98030.73
2022-08-05T17:27:33.559Z,98034.62
2022-08-05T17:30:07.124Z,98036.21
2022-08-05T17:32:42.139Z,98037.95
2022-08-05T17:35:12.310Z,98035.03
2022-08-05T17:37:45.503Z,98038.48
2022-08-05T17:40:18.271Z,98042.29
2022-08-05T17:42:53.386Z,98041.04
2022-08-05T17:45:25.177Z,98040.66
2022-08-05T17:48:08.002Z,98042.67
2022-08-05T17:50:36.101Z,98041.77
2022-08-05T17:53:05.268Z,98043.15
2022-08-05T17:55:38.512Z,98037.79
2022-08-05T17:58:14.569Z,98036.74
2022-08-05T18:00:51.009Z,98040.15
2022-08-05T18:03:48.449Z,98043.52
2022-08-05T18:06:10.981Z,98044.80
2022-08-05T18:08:52.195Z,98043.37
2022-08-05T18:11:24.735Z,98043.86
2022-08-05T18:14:07.292Z,98045.89
2022-08-05T18:16:43.780Z,98048.30
2022-08-05T18:19:22.697Z,98048.67
2022-08-05T18:22:07.438Z,98051.98
2022-08-05T18:24:39.649Z,98052.17
2022-08-05T18:27:12.325Z,98058.52
2022-08-05T18:29:53.501Z,98057.61
2022-08-05T18:32:28.018Z,98059.52
2022-08-05T18:34:57.859Z,98053.75
2022-08-05T18:37:34.768Z,98055.06
2022-08-05T18:41:50.204Z,98058.55
2022-08-05T18:43:01.075Z,98059.85
2022-08-05T18:45:41.888Z,98041.67
2022-08-05T18:48:11.196Z,98060.60
2022-08-05T18:52:02.828Z,98062.64
2022-08-05T18:53:50.424Z,98062.63
2022-08-05T18:56:21.521Z,98067.40
2022-08-05T18:58:51.006Z,98063.05
2022-08-05T19:01:47.644Z,98060.13
2022-08-05T19:04:12.298Z,98058.89
2022-08-05T19:06:45.270Z,98063.92
2022-08-05T19:09:13.451Z,98062.05
2022-08-05T19:12:00.210Z,98066.06
2022-08-05T19:14:53.252Z,98067.32
2022-08-05T19:17:19.192Z,98071.00
2022-08-05T19:19:48.648Z,98076.67
2022-08-05T19:22:17.723Z,98077.55
2022-08-05T19:24:54.546Z,98077.88
2022-08-05T19:27:27.823Z,98080.06
2022-08-05T19:29:58.719Z,98081.71
2022-08-05T19:32:27.800Z,98082.39
2022-08-05T19:34:57.830Z,98074.80
2022-08-05T19:37:35.135Z,98087.55
2022-08-05T19:40:17.506Z,98079.09
2022-08-05T19:43:05.580Z,98087.35
2022-08-05T19:45:36.837Z,98088.36
2022-08-05T19:48:06.292Z,98090.84
2022-08-05T19:50:35.216Z,98091.63
2022-08-05T19:53:09.611Z,98088.39
2022-08-05T19:56:15.228Z,98086.61
2022-08-05T19:58:29.547Z,98089.87
2022-08-05T20:00:58.974Z,98089.27
2022-08-05T20:03:27.411Z,98088.98
2022-08-05T20:06:15.610Z,98091.69
2022-08-05T20:08:47.390Z,98081.70
2022-08-05T20:11:18.095Z,98086.39
2022-08-05T20:13:58.981Z,98087.41
2022-08-05T20:16:35.516Z,98088.02
2022-08-05T20:19:04.410Z,98088.69
2022-08-05T20:21:33.267Z,98086.35
2022-08-05T20:24:01.155Z,98085.16
2022-08-05T20:26:29.544Z,98084.09
2022-08-05T20:29:00.665Z,98081.80
2022-08-05T20:31:42.061Z,98086.83
2022-08-05T20:34:17.559Z,98083.90
2022-08-05T20:36:45.703Z,98081.91
2022-08-05T20:39:16.249Z,98083.61
2022-08-05T20:41:47.724Z,98087.83
2022-08-05T20:44:29.817Z,98088.10
2022-08-05T20:47:01.554Z,98093.64
2022-08-05T20:49:33.185Z,98096.30
2022-08-05T20:52:08.733Z,98094.57
2022-08-05T20:54:43.514Z,98096.11
2022-08-05T20:57:43.850Z,98094.71
2022-08-05T21:00:41.006Z,98092.95
2022-08-05T21:03:06.979Z,98092.96
2022-08-05T21:05:47.581Z,98091.61
2022-08-05T21:08:28.053Z,98101.89
2022-08-05T21:11:11.873Z,98097.72
2022-08-05T21:13:55.697Z,98091.39
2022-08-05T21:16:29.891Z,98106.91
2022-08-05T21:19:00.873Z,98104.91
2022-08-05T21:21:39.206Z,98110.20
2022-08-05T21:24:15.313Z,98114.91
2022-08-05T21:26:53.418Z,98118.12
2022-08-05T21:29:32.090Z,98116.42
2022-08-05T21:32:04.113Z,98118.70
2022-08-05T21:34:33.114Z,98118.30
2022-08-05T21:37:05.096Z,98114.37
2022-08-05T21:39:34.747Z,98113.87
2022-08-05T21:42:30.924Z,98115.39
2022-08-05T21:44:56.930Z,98116.12
2022-08-05T21:47:54.890Z,98119.39
2022-08-05T21:50:14.776Z,98118.91
2022-08-05T21:52:45.900Z,98113.45
2022-08-05T21:55:15.612Z,98117.08
2022-08-05T21:57:43.501Z,98118.81
2022-08-05T22:00:15.232Z,98122.98
2022-08-05T22:02:43.605Z,98123.92
2022-08-05T22:05:12.489Z,98122.06
2022-08-05T22:07:58.451Z,98121.20
2022-08-05T22:10:28.248Z,98116.58
2022-08-05T22:12:58.811Z,98090.58
2022-08-05T22:16:02.035Z,98117.23
2022-08-05T22:18:15.299Z,98113.98
2022-08-05T22:20:47.477Z,98116.55
2022-08-05T22:24:02.509Z,98114.67
2022-08-05T22:26:49.440Z,98114.81
2022-08-05T22:29:19.011Z,98117.55
2022-08-05T22:31:55.150Z,98124.53
2022-08-05T22:34:28.647Z,98126.64
2022-08-05T22:36:58.500Z,98123.02
2022-08-05T22:39:33.763Z,98121.57
2022-08-05T22:42:11.549Z,98120.52
2022-08-05T22:44:48.376Z,98117.83
2022-08-05T22:47:29.500Z,98113.73
2022-08-05T22:50:22.831Z,98116.32
2022-08-05T22:52:51.531Z,98114.41
2022-08-05T22:55:23.047Z,98113.79
2022-08-05T22:57:52.553Z,98115.22
2022-08-05T23:00:22.317Z,98116.94
2022-08-05T23:02:52.223Z,98118.15
2022-08-05T23:05:22.238Z,98113.02
2022-08-05T23:07:52.126Z,98109.77
2022-08-05T23:10:23.722Z,98104.60
2022-08-05T23:12:55.105Z,98104.27
2022-08-05T23:15:29.980Z,98102.80
2022-08-05T23:18:06.086Z,98104.10
2022-08-05T23:20:43.804Z,98102.52
2022-08-05T23:23:11.739Z,98105.04
2022-08-05T23:25:52.436Z,98101.17
2022-08-05T23:28:28.556Z,98096.83
2022-08-05T23:31:15.690Z,98100.16
2022-08-05T23:34:02.884Z,98101.27
2022-08-05T23:36:41.401Z,98102.94
2022-08-05T23:39:16.547Z,98106.27
2022-08-05T23:41:56.267Z,98106.05
2022-08-05T23:44:25.176Z,98106.23
2022-08-05T23:46:56.100Z,98095.77
2022-08-05T23:49:34.096Z,98107.47
2022-08-05T23:52:25.366Z,98107.23
2022-08-05T23:54:54.561Z,98111.05
2022-08-05T23:57:28.272Z,98119.38
